Time;durP1;ratioP1;P1;durP2;ratioP2;P2;SDS_P1;SDS_P2;PMS_P1;PMS_P2;Temp;Humidity;BMP_temperature;BMP_pressure;BME280_temperature;BME280_humidity;BME280_pressure;Samples;Min_cycle;Max_cycle;Signal;HPM_P1;HPM_P2
2023/09/29 00:02:15;;;;;;;0.40;0.40;;;;;;;;;;4970674;28;20042;-64
2023/09/29 00:04:40;;;;;;;0.40;0.40;;;;;;;;;;4972652;28;20032;-62
2023/09/29 00:07:07;;;;;;;0.40;0.40;;;;;;;;;;4977057;28;20177;-63
2023/09/29 00:09:32;;;;;;;0.40;0.40;;;;;;;;;;4974290;28;20553;-64
2023/09/29 00:11:59;;;;;;;0.43;0.43;;;;;;;;;;4973412;28;20288;-61
2023/09/29 00:14:24;;;;;;;0.40;0.40;;;;;;;;;;4971750;28;20038;-66
2023/09/29 00:16:49;;;;;;;0.40;0.40;;;;;;;;;;4971971;28;20092;-62
2023/09/29 00:19:14;;;;;;;0.40;0.40;;;;;;;;;;4973162;28;20295;-63
2023/09/29 00:21:40;;;;;;;0.40;0.40;;;;;;;;;;4970276;28;20441;-63
2023/09/29 00:24:05;;;;;;;0.40;0.40;;;;;;;;;;4972692;28;20611;-62
2023/09/29 00:26:31;;;;;;;0.40;0.40;;;;;;;;;;4969519;28;20065;-63
2023/09/29 00:28:56;;;;;;;0.40;0.40;;;;;;;;;;4972971;28;20065;-62
2023/09/29 00:31:21;;;;;;;0.40;0.40;;;;;;;;;;4977276;28;20504;-62
2023/09/29 00:33:46;;;;;;;0.40;0.40;;;;;;;;;;4968044;28;20035;-62
2023/09/29 00:36:12;;;;;;;0.40;0.40;;;;;;;;;;4971071;28;20761;-62
2023/09/29 00:38:37;;;;;;;0.40;0.40;;;;;;;;;;4970389;28;20655;-62
2023/09/29 00:41:03;;;;;;;0.40;0.40;;;;;;;;;;4974029;28;20022;-64
2023/09/29 00:43:28;;;;;;;0.40;0.40;;;;;;;;;;4967662;28;20496;-62
2023/09/29 00:45:54;;;;;;;0.43;0.43;;;;;;;;;;4970509;28;20039;-63
2023/09/29 00:48:22;;;;;;;0.40;0.40;;;;;;;;;;4970462;28;20480;-64
2023/09/29 00:50:47;;;;;;;0.40;0.40;;;;;;;;;;4959984;28;20117;-61
2023/09/29 00:53:16;;;;;;;0.50;0.50;;;;;;;;;;4969290;28;20030;-61
2023/09/29 00:55:42;;;;;;;0.50;0.50;;;;;;;;;;4970179;28;20043;-62
2023/09/29 00:58:08;;;;;;;0.45;0.45;;;;;;;;;;4969163;28;20043;-63
2023/09/29 01:00:36;;;;;;;0.40;0.40;;;;;;;;;;4977613;28;20034;-66
2023/09/29 01:03:05;;;;;;;0.50;0.50;;;;;;;;;;4971558;28;20524;-61
2023/09/29 01:05:35;;;;;;;0.40;0.40;;;;;;;;;;4970495;28;20547;-62
2023/09/29 01:08:08;;;;;;;0.47;0.47;;;;;;;;;;4968267;28;20031;-64
2023/09/29 01:10:35;;;;;;;0.40;0.40;;;;;;;;;;4957197;28;20038;-63
2023/09/29 01:13:00;;;;;;;0.50;0.50;;;;;;;;;;4971685;28;20034;-63
2023/09/29 01:15:25;;;;;;;0.50;0.50;;;;;;;;;;4974121;28;20031;-62
2023/09/29 01:17:51;;;;;;;0.40;0.40;;;;;;;;;;4970126;28;20033;-64
2023/09/29 01:20:25;;;;;;;0.40;0.40;;;;;;;;;;4971938;28;20030;-62
2023/09/29 01:22:50;;;;;;;0.43;0.43;;;;;;;;;;4976449;28;20118;-63
2023/09/29 01:25:17;;;;;;;0.40;0.40;;;;;;;;;;4964636;28;20035;-62
2023/09/29 01:27:42;;;;;;;0.40;0.40;;;;;;;;;;4972148;28;20034;-62
2023/09/29 01:30:09;;;;;;;0.40;0.40;;;;;;;;;;4965740;28;20094;-62
2023/09/29 01:32:34;;;;;;;0.47;0.47;;;;;;;;;;4965684;28;20049;-62
2023/09/29 01:35:00;;;;;;;0.40;0.40;;;;;;;;;;4959710;28;20028;-63
2023/09/29 01:37:26;;;;;;;0.50;0.50;;;;;;;;;;4973745;28;20039;-63
2023/09/29 01:39:51;;;;;;;0.40;0.40;;;;;;;;;;4971817;28;20154;-62
2023/09/29 01:42:17;;;;;;;0.50;0.50;;;;;;;;;;4970335;28;20093;-65
2023/09/29 01:44:43;;;;;;;0.50;0.50;;;;;;;;;;4977220;28;20026;-64
2023/09/29 01:47:08;;;;;;;0.50;0.50;;;;;;;;;;4975910;28;20030;-62
2023/09/29 01:49:33;;;;;;;0.40;0.40;;;;;;;;;;4975351;28;20397;-63
2023/09/29 01:51:59;;;;;;;0.40;0.40;;;;;;;;;;4970757;28;20042;-63
2023/09/29 01:54:24;;;;;;;0.40;0.40;;;;;;;;;;4972691;28;20141;-62
2023/09/29 01:56:49;;;;;;;0.40;0.40;;;;;;;;;;4969378;28;20105;-62
2023/09/29 01:59:14;;;;;;;0.40;0.40;;;;;;;;;;4971890;28;20088;-62
2023/09/29 02:01:40;;;;;;;0.47;0.47;;;;;;;;;;4967532;28;20126;-62
2023/09/29 02:04:05;;;;;;;0.40;0.40;;;;;;;;;;4973468;28;20688;-64
2023/09/29 02:06:31;;;;;;;0.50;0.50;;;;;;;;;;4970714;28;20050;-62
2023/09/29 02:08:56;;;;;;;0.40;0.40;;;;;;;;;;4973190;28;20111;-63
2023/09/29 02:11:22;;;;;;;0.55;0.55;;;;;;;;;;4971766;28;20117;-63
2023/09/29 02:13:48;;;;;;;0.45;0.45;;;;;;;;;;4967071;28;20620;-63
2023/09/29 02:16:15;;;;;;;0.45;0.45;;;;;;;;;;4965735;28;20104;-62
2023/09/29 02:18:43;;;;;;;0.50;0.50;;;;;;;;;;4954390;28;21071;-63
2023/09/29 02:21:09;;;;;;;0.40;0.40;;;;;;;;;;4969173;28;20027;-61
2023/09/29 02:23:36;;;;;;;0.40;0.40;;;;;;;;;;4969180;28;20082;-63
2023/09/29 02:26:02;;;;;;;0.57;0.57;;;;;;;;;;4965103;28;20046;-63
2023/09/29 02:28:32;;;;;;;0.50;0.50;;;;;;;;;;4969058;28;20038;-63
2023/09/29 02:30:58;;;;;;;0.50;0.50;;;;;;;;;;4955972;28;20033;-63
2023/09/29 02:33:24;;;;;;;0.50;0.50;;;;;;;;;;4974317;28;20034;-63
2023/09/29 02:35:50;;;;;;;0.60;0.60;;;;;;;;;;4968738;28;20030;-66
2023/09/29 02:38:16;;;;;;;0.40;0.40;;;;;;;;;;4971298;28;20432;-63
2023/09/29 02:40:41;;;;;;;0.50;0.50;;;;;;;;;;4971116;28;20088;-64
2023/09/29 02:43:07;;;;;;;0.50;0.50;;;;;;;;;;4967983;28;20046;-64
2023/09/29 02:45:33;;;;;;;0.50;0.50;;;;;;;;;;4952290;28;20060;-62
2023/09/29 02:47:58;;;;;;;0.50;0.50;;;;;;;;;;4968328;28;20027;-63
2023/09/29 02:50:25;;;;;;;0.50;0.50;;;;;;;;;;4974211;28;20781;-62
2023/09/29 02:52:51;;;;;;;0.50;0.50;;;;;;;;;;4972316;28;20031;-63
2023/09/29 02:55:17;;;;;;;0.60;0.60;;;;;;;;;;4964305;28;20043;-62
2023/09/29 02:57:42;;;;;;;0.50;0.50;;;;;;;;;;4970734;28;20038;-62
2023/09/29 03:00:12;;;;;;;0.50;0.50;;;;;;;;;;4971261;28;20041;-65
2023/09/29 03:02:37;;;;;;;0.50;0.50;;;;;;;;;;4967182;28;20130;-64
2023/09/29 03:05:08;;;;;;;0.40;0.40;;;;;;;;;;4965797;28;20286;-62
2023/09/29 03:07:34;;;;;;;0.50;0.50;;;;;;;;;;4956860;28;20517;-62
2023/09/29 03:10:00;;;;;;;0.50;0.50;;;;;;;;;;4969233;28;20027;-62
2023/09/29 03:12:26;;;;;;;0.50;0.50;;;;;;;;;;4973592;28;20580;-62
2023/09/29 03:14:52;;;;;;;0.57;0.57;;;;;;;;;;4968465;28;20026;-64
2023/09/29 03:17:18;;;;;;;0.60;0.60;;;;;;;;;;4972705;28;20271;-63
2023/09/29 03:19:43;;;;;;;0.50;0.50;;;;;;;;;;4968514;28;20042;-62
2023/09/29 03:22:13;;;;;;;0.50;0.50;;;;;;;;;;4971585;28;20065;-63
2023/09/29 03:24:38;;;;;;;0.50;0.50;;;;;;;;;;4967227;28;20507;-64
2023/09/29 03:27:03;;;;;;;0.40;0.40;;;;;;;;;;4972807;28;20039;-63
2023/09/29 03:29:29;;;;;;;0.50;0.50;;;;;;;;;;4971238;28;20042;-63
2023/09/29 03:31:54;;;;;;;0.50;0.50;;;;;;;;;;4955445;28;20065;-62
2023/09/29 03:34:20;;;;;;;0.50;0.50;;;;;;;;;;4972571;28;20076;-62
2023/09/29 03:36:45;;;;;;;0.50;0.50;;;;;;;;;;4987816;28;20117;-63
2023/09/29 03:39:11;;;;;;;0.50;0.50;;;;;;;;;;4971478;28;20031;-63
2023/09/29 03:41:36;;;;;;;0.50;0.50;;;;;;;;;;4969154;28;20047;-64
2023/09/29 03:44:01;;;;;;;0.50;0.50;;;;;;;;;;4966844;28;20058;-63
2023/09/29 03:46:28;;;;;;;0.50;0.50;;;;;;;;;;4962653;28;20449;-63
2023/09/29 03:48:54;;;;;;;0.50;0.50;;;;;;;;;;4972718;28;20796;-63
2023/09/29 03:51:23;;;;;;;0.50;0.50;;;;;;;;;;4950415;28;20066;-62
2023/09/29 03:54:00;;;;;;;0.50;0.50;;;;;;;;;;4965939;28;20602;-64
2023/09/29 03:56:25;;;;;;;0.50;0.50;;;;;;;;;;4968668;28;20026;-62
2023/09/29 03:58:53;;;;;;;0.50;0.50;;;;;;;;;;4974038;28;20048;-63
2023/09/29 04:01:19;;;;;;;0.50;0.50;;;;;;;;;;4972091;28;20030;-63
2023/09/29 04:03:44;;;;;;;0.50;0.50;;;;;;;;;;4970512;28;20038;-62
2023/09/29 04:06:09;;;;;;;0.50;0.50;;;;;;;;;;4973176;28;20027;-63
2023/09/29 04:08:35;;;;;;;0.43;0.43;;;;;;;;;;4972270;28;20035;-63
2023/09/29 04:11:03;;;;;;;0.50;0.50;;;;;;;;;;4972063;28;20106;-64
2023/09/29 04:13:29;;;;;;;0.40;0.40;;;;;;;;;;4974416;28;20081;-65
2023/09/29 04:15:54;;;;;;;0.50;0.50;;;;;;;;;;4973542;28;20702;-64
2023/09/29 04:18:20;;;;;;;0.50;0.50;;;;;;;;;;4973349;28;20030;-62
2023/09/29 04:20:45;;;;;;;0.50;0.50;;;;;;;;;;4977419;28;20045;-63
2023/09/29 04:23:11;;;;;;;0.40;0.40;;;;;;;;;;4971396;28;20047;-63
2023/09/29 04:25:36;;;;;;;0.50;0.50;;;;;;;;;;4974747;28;20596;-62
2023/09/29 04:28:01;;;;;;;0.50;0.50;;;;;;;;;;4970887;28;20105;-65
2023/09/29 04:30:27;;;;;;;0.50;0.50;;;;;;;;;;4969483;28;20045;-63
2023/09/29 04:32:55;;;;;;;0.50;0.50;;;;;;;;;;4966648;28;20034;-63
2023/09/29 04:35:20;;;;;;;0.43;0.43;;;;;;;;;;4970582;28;20043;-62
2023/09/29 04:37:47;;;;;;;0.47;0.47;;;;;;;;;;4969084;28;20031;-63
2023/09/29 04:40:12;;;;;;;0.60;0.60;;;;;;;;;;4970563;28;20034;-61
2023/09/29 04:42:38;;;;;;;0.50;0.50;;;;;;;;;;4971851;28;20048;-63
2023/09/29 04:45:03;;;;;;;0.50;0.50;;;;;;;;;;4969288;28;20476;-63
2023/09/29 04:47:30;;;;;;;0.50;0.50;;;;;;;;;;4980335;28;20058;-63
2023/09/29 04:49:55;;;;;;;0.60;0.60;;;;;;;;;;4972860;28;20034;-62
2023/09/29 04:52:21;;;;;;;0.50;0.50;;;;;;;;;;4970870;28;20392;-64
2023/09/29 04:54:46;;;;;;;0.40;0.40;;;;;;;;;;4966641;28;20116;-63
2023/09/29 04:57:11;;;;;;;0.50;0.50;;;;;;;;;;4971154;28;20031;-63
2023/09/29 04:59:37;;;;;;;0.50;0.50;;;;;;;;;;4973372;28;20038;-64
2023/09/29 05:02:02;;;;;;;0.43;0.43;;;;;;;;;;4967522;28;20030;-63
2023/09/29 05:04:28;;;;;;;0.40;0.40;;;;;;;;;;4976569;28;20130;-63
2023/09/29 05:06:53;;;;;;;0.40;0.40;;;;;;;;;;4965142;28;20027;-64
2023/09/29 05:09:18;;;;;;;0.40;0.40;;;;;;;;;;4972519;28;20114;-63
2023/09/29 05:11:44;;;;;;;0.40;0.40;;;;;;;;;;4975520;28;20125;-63
2023/09/29 05:14:10;;;;;;;0.52;0.52;;;;;;;;;;4981929;28;20034;-63
2023/09/29 05:16:35;;;;;;;0.50;0.50;;;;;;;;;;4965258;28;20035;-63
2023/09/29 05:19:00;;;;;;;0.50;0.50;;;;;;;;;;4974732;28;20042;-62
2023/09/29 05:21:26;;;;;;;0.50;0.50;;;;;;;;;;4968288;28;20038;-63
2023/09/29 05:23:52;;;;;;;0.40;0.40;;;;;;;;;;4969592;28;20086;-62
2023/09/29 05:26:17;;;;;;;0.40;0.40;;;;;;;;;;4970334;28;20030;-63
2023/09/29 05:28:42;;;;;;;0.40;0.40;;;;;;;;;;4968881;28;20046;-62
2023/09/29 05:31:08;;;;;;;0.40;0.40;;;;;;;;;;4975323;28;20045;-63
2023/09/29 05:33:33;;;;;;;0.40;0.40;;;;;;;;;;4969958;28;20088;-65
2023/09/29 05:35:59;;;;;;;0.40;0.40;;;;;;;;;;4971194;28;20069;-63
2023/09/29 05:38:24;;;;;;;0.40;0.40;;;;;;;;;;4978425;28;20038;-62
2023/09/29 05:40:51;;;;;;;0.40;0.40;;;;;;;;;;4978895;28;20035;-62
2023/09/29 05:43:16;;;;;;;0.40;0.40;;;;;;;;;;4976954;28;20042;-62
2023/09/29 05:45:44;;;;;;;0.40;0.40;;;;;;;;;;4977437;28;20030;-63
2023/09/29 05:48:10;;;;;;;0.40;0.40;;;;;;;;;;4971012;28;20054;-63
2023/09/29 05:50:38;;;;;;;0.40;0.40;;;;;;;;;;4976011;28;20457;-63
2023/09/29 05:53:04;;;;;;;0.40;0.40;;;;;;;;;;4972293;28;20037;-66
2023/09/29 05:55:30;;;;;;;0.40;0.40;;;;;;;;;;4969088;28;20371;-62
2023/09/29 05:57:55;;;;;;;0.40;0.40;;;;;;;;;;4970772;28;20038;-62
2023/09/29 06:00:20;;;;;;;0.40;0.40;;;;;;;;;;4977971;28;20081;-63
2023/09/29 06:02:46;;;;;;;0.30;0.30;;;;;;;;;;4986682;28;20086;-62
2023/09/29 06:05:12;;;;;;;0.40;0.40;;;;;;;;;;4986271;28;20034;-63
2023/09/29 06:07:37;;;;;;;0.40;0.40;;;;;;;;;;4987061;28;20045;-63
2023/09/29 06:10:03;;;;;;;0.30;0.30;;;;;;;;;;4983942;28;20492;-63
2023/09/29 06:12:28;;;;;;;0.30;0.30;;;;;;;;;;4976896;28;20034;-62
2023/09/29 06:14:54;;;;;;;0.30;0.30;;;;;;;;;;4970462;28;20034;-63
2023/09/29 06:17:20;;;;;;;0.30;0.30;;;;;;;;;;4973199;28;20158;-63
2023/09/29 06:19:45;;;;;;;0.30;0.30;;;;;;;;;;4964567;28;20623;-62
2023/09/29 06:22:10;;;;;;;0.30;0.30;;;;;;;;;;4971113;28;20038;-62
2023/09/29 06:24:36;;;;;;;0.30;0.30;;;;;;;;;;4976551;28;20030;-62
2023/09/29 06:27:01;;;;;;;0.30;0.30;;;;;;;;;;4978125;28;20038;-62
2023/09/29 06:29:26;;;;;;;0.30;0.30;;;;;;;;;;4975176;28;20045;-62
2023/09/29 06:31:53;;;;;;;0.35;0.35;;;;;;;;;;4977671;28;20090;-64
2023/09/29 06:34:19;;;;;;;0.30;0.30;;;;;;;;;;4978365;28;20041;-62
2023/09/29 06:36:44;;;;;;;0.30;0.30;;;;;;;;;;4980637;28;20777;-62
2023/09/29 06:39:12;;;;;;;0.30;0.30;;;;;;;;;;4976954;28;20058;-62
2023/09/29 06:41:37;;;;;;;0.30;0.30;;;;;;;;;;4974500;28;20046;-63
2023/09/29 06:44:03;;;;;;;0.30;0.30;;;;;;;;;;4965660;28;20507;-63
2023/09/29 06:46:28;;;;;;;0.30;0.30;;;;;;;;;;4974834;28;20034;-63
2023/09/29 06:48:53;;;;;;;0.30;0.30;;;;;;;;;;4964390;28;20393;-61
2023/09/29 06:51:19;;;;;;;0.30;0.30;;;;;;;;;;4966286;28;20027;-63
2023/09/29 06:53:44;;;;;;;0.30;0.30;;;;;;;;;;4960776;28;20041;-64
2023/09/29 06:56:10;;;;;;;0.30;0.30;;;;;;;;;;4968600;28;20378;-64
2023/09/29 06:58:36;;;;;;;0.30;0.30;;;;;;;;;;4966959;28;20736;-63
2023/09/29 07:01:02;;;;;;;0.20;0.20;;;;;;;;;;4969798;28;20031;-65
2023/09/29 07:03:29;;;;;;;0.30;0.30;;;;;;;;;;4967706;28;20051;-65
2023/09/29 07:05:55;;;;;;;0.20;0.20;;;;;;;;;;4964963;28;20031;-66
2023/09/29 07:08:20;;;;;;;0.30;0.30;;;;;;;;;;4965748;28;20027;-64
2023/09/29 07:10:46;;;;;;;0.22;0.22;;;;;;;;;;4964399;28;20034;-63
2023/09/29 07:13:11;;;;;;;0.20;0.20;;;;;;;;;;4963675;28;20031;-63
2023/09/29 07:15:36;;;;;;;0.25;0.25;;;;;;;;;;4967217;28;20809;-65
2023/09/29 07:18:02;;;;;;;0.20;0.20;;;;;;;;;;4968484;28;20057;-63
2023/09/29 07:20:27;;;;;;;0.30;0.30;;;;;;;;;;4969866;28;20065;-64
2023/09/29 07:22:52;;;;;;;0.25;0.25;;;;;;;;;;4962967;28;20046;-64
2023/09/29 07:25:18;;;;;;;0.30;0.30;;;;;;;;;;4963283;28;20113;-63
2023/09/29 07:27:44;;;;;;;0.20;0.20;;;;;;;;;;4971550;28;20121;-64
2023/09/29 07:30:09;;;;;;;0.20;0.20;;;;;;;;;;4963593;28;20127;-63
2023/09/29 07:32:36;;;;;;;0.20;0.20;;;;;;;;;;4964160;28;20042;-63
2023/09/29 07:35:02;;;;;;;0.20;0.20;;;;;;;;;;4970715;28;20090;-66
2023/09/29 07:37:27;;;;;;;0.20;0.20;;;;;;;;;;4966968;28;20090;-63
2023/09/29 07:39:53;;;;;;;0.20;0.20;;;;;;;;;;4965196;28;20039;-63
2023/09/29 07:42:18;;;;;;;0.20;0.20;;;;;;;;;;4970273;28;20041;-63
2023/09/29 07:44:43;;;;;;;0.22;0.22;;;;;;;;;;4965827;28;20043;-64
2023/09/29 07:47:08;;;;;;;0.20;0.20;;;;;;;;;;4964383;28;20022;-65
2023/09/29 07:49:40;;;;;;;0.20;0.20;;;;;;;;;;4968845;28;20037;-64
2023/09/29 07:52:05;;;;;;;0.20;0.20;;;;;;;;;;4967651;28;20034;-63
2023/09/29 07:54:30;;;;;;;0.20;0.20;;;;;;;;;;4968280;28;20801;-64
2023/09/29 07:56:56;;;;;;;0.20;0.20;;;;;;;;;;4969186;28;20018;-64
2023/09/29 07:59:22;;;;;;;0.20;0.20;;;;;;;;;;4967940;28;20102;-64
2023/09/29 08:01:49;;;;;;;0.20;0.20;;;;;;;;;;4957057;28;20043;-65
2023/09/29 08:04:15;;;;;;;0.20;0.20;;;;;;;;;;4967732;28;20541;-63
2023/09/29 08:06:40;;;;;;;0.10;0.10;;;;;;;;;;4969892;28;20045;-64
2023/09/29 08:09:06;;;;;;;0.10;0.10;;;;;;;;;;4969158;28;20044;-64
2023/09/29 08:11:32;;;;;;;0.10;0.10;;;;;;;;;;4970100;28;20034;-64
2023/09/29 08:13:57;;;;;;;0.10;0.10;;;;;;;;;;4956739;28;20527;-65
2023/09/29 08:16:24;;;;;;;0.10;0.10;;;;;;;;;;4964173;28;20062;-64
2023/09/29 08:18:49;;;;;;;0.17;0.17;;;;;;;;;;4968687;28;20452;-65
2023/09/29 08:21:14;;;;;;;0.10;0.10;;;;;;;;;;4973724;28;20110;-63
2023/09/29 08:23:39;;;;;;;0.10;0.10;;;;;;;;;;4969216;28;20573;-63
2023/09/29 08:26:05;;;;;;;0.10;0.10;;;;;;;;;;4971233;28;20026;-64
2023/09/29 08:28:30;;;;;;;0.10;0.10;;;;;;;;;;4967591;28;20030;-63
2023/09/29 08:30:55;;;;;;;0.10;0.10;;;;;;;;;;4966001;28;20393;-63
2023/09/29 08:33:21;;;;;;;0.10;0.10;;;;;;;;;;4968538;28;20096;-63
2023/09/29 08:35:47;;;;;;;0.10;0.10;;;;;;;;;;4973220;28;20549;-64
2023/09/29 08:38:12;;;;;;;0.20;0.20;;;;;;;;;;4972313;28;20035;-63
2023/09/29 08:40:39;;;;;;;0.10;0.10;;;;;;;;;;4968670;28;20058;-63
2023/09/29 08:43:06;;;;;;;0.10;0.10;;;;;;;;;;4968863;28;20118;-63
2023/09/29 08:45:31;;;;;;;;;;;;;;;;;;4968362;28;20061;-65
2023/09/29 08:47:58;;;;;;;0.10;0.10;;;;;;;;;;4968993;28;19921;-62
2023/09/29 08:50:27;;;;;;;0.20;0.20;;;;;;;;;;4965964;28;20034;-64
2023/09/29 08:52:53;;;;;;;0.10;0.10;;;;;;;;;;4970689;28;20030;-63
2023/09/29 08:55:19;;;;;;;0.10;0.10;;;;;;;;;;4970012;28;20086;-63
2023/09/29 08:57:45;;;;;;;0.10;0.10;;;;;;;;;;4971008;28;20324;-63
2023/09/29 09:00:13;;;;;;;0.10;0.10;;;;;;;;;;4973293;28;20046;-66
2023/09/29 09:02:48;;;;;;;0.10;0.10;;;;;;;;;;4969335;28;20165;-63
2023/09/29 09:05:17;;;;;;;0.10;0.10;;;;;;;;;;4972271;28;20114;-63
2023/09/29 09:07:43;;;;;;;0.10;0.10;;;;;;;;;;4984236;28;20447;-63
2023/09/29 09:10:09;;;;;;;0.10;0.10;;;;;;;;;;4966023;28;20118;-63
2023/09/29 09:12:36;;;;;;;0.00;0.00;;;;;;;;;;4967517;28;20050;-64
2023/09/29 09:15:05;;;;;;;0.10;0.10;;;;;;;;;;4970372;28;20134;-64
2023/09/29 09:17:31;;;;;;;0.10;0.10;;;;;;;;;;4971425;28;20019;-64
2023/09/29 09:19:56;;;;;;;0.10;0.10;;;;;;;;;;4971330;28;20113;-63
2023/09/29 09:22:25;;;;;;;0.10;0.10;;;;;;;;;;4968251;28;20700;-63
2023/09/29 09:24:56;;;;;;;0.10;0.10;;;;;;;;;;4969005;28;20026;-63
2023/09/29 09:27:21;;;;;;;0.10;0.10;;;;;;;;;;4966656;28;20453;-64
2023/09/29 09:29:47;;;;;;;0.10;0.10;;;;;;;;;;4973287;28;20038;-63
2023/09/29 09:32:12;;;;;;;0.10;0.10;;;;;;;;;;4970664;28;20034;-63
2023/09/29 09:34:38;;;;;;;0.10;0.10;;;;;;;;;;4973349;28;20130;-62
2023/09/29 09:37:05;;;;;;;0.10;0.10;;;;;;;;;;4970088;28;20558;-64
2023/09/29 09:39:33;;;;;;;0.10;0.10;;;;;;;;;;4967143;28;20551;-63
2023/09/29 09:41:58;;;;;;;0.10;0.10;;;;;;;;;;4967002;28;20049;-62
2023/09/29 09:44:25;;;;;;;0.10;0.10;;;;;;;;;;4967911;28;20031;-62
2023/09/29 09:47:00;;;;;;;0.10;0.10;;;;;;;;;;4970625;28;20034;-63
2023/09/29 09:49:30;;;;;;;0.10;0.10;;;;;;;;;;4965982;28;20034;-66
2023/09/29 09:51:59;;;;;;;0.10;0.10;;;;;;;;;;4965557;28;20043;-62
2023/09/29 09:54:29;;;;;;;0.00;0.00;;;;;;;;;;4967560;28;20031;-63
2023/09/29 09:57:00;;;;;;;0.08;0.08;;;;;;;;;;4964664;28;20031;-63
2023/09/29 09:59:27;;;;;;;0.10;0.10;;;;;;;;;;4963238;28;20397;-65
2023/09/29 10:01:54;;;;;;;0.10;0.10;;;;;;;;;;4966474;28;20477;-63
2023/09/29 10:04:20;;;;;;;0.10;0.10;;;;;;;;;;4966708;28;20035;-63
2023/09/29 10:06:45;;;;;;;0.10;0.10;;;;;;;;;;4968644;28;20111;-63
2023/09/29 10:09:11;;;;;;;0.07;0.07;;;;;;;;;;4962394;28;20101;-64
2023/09/29 10:11:37;;;;;;;0.00;0.00;;;;;;;;;;4962565;28;20042;-63
2023/09/29 10:14:03;;;;;;;0.00;0.00;;;;;;;;;;4969288;28;20031;-65
2023/09/29 10:16:28;;;;;;;0.00;0.00;;;;;;;;;;4976871;28;20320;-67
2023/09/29 10:19:01;;;;;;;0.00;0.00;;;;;;;;;;4967085;28;20070;-67
2023/09/29 10:21:33;;;;;;;0.00;0.00;;;;;;;;;;4974797;28;20510;-63
2023/09/29 10:24:00;;;;;;;0.00;0.00;;;;;;;;;;4985395;28;20066;-66
2023/09/29 10:26:25;;;;;;;0.00;0.00;;;;;;;;;;4966011;28;20464;-62
2023/09/29 10:29:00;;;;;;;0.00;0.00;;;;;;;;;;4967910;28;20113;-63
2023/09/29 10:31:27;;;;;;;0.00;0.00;;;;;;;;;;4967701;28;20039;-61
2023/09/29 10:33:54;;;;;;;0.00;0.00;;;;;;;;;;4965522;28;20035;-63
2023/09/29 10:36:20;;;;;;;0.00;0.00;;;;;;;;;;4969760;28;20859;-63
2023/09/29 10:38:45;;;;;;;0.00;0.00;;;;;;;;;;4968873;28;20038;-62
2023/09/29 10:41:12;;;;;;;0.00;0.00;;;;;;;;;;4968579;28;20035;-64
2023/09/29 10:43:38;;;;;;;0.00;0.00;;;;;;;;;;4964996;28;20060;-63
2023/09/29 10:46:08;;;;;;;0.00;0.00;;;;;;;;;;4960700;28;20037;-63
2023/09/29 10:48:33;;;;;;;0.00;0.00;;;;;;;;;;4964538;28;20034;-63
2023/09/29 10:50:59;;;;;;;0.00;0.00;;;;;;;;;;4971312;28;20452;-65
2023/09/29 10:53:24;;;;;;;0.00;0.00;;;;;;;;;;4965423;28;20366;-63
2023/09/29 10:55:50;;;;;;;0.00;0.00;;;;;;;;;;4971607;28;20044;-63
2023/09/29 10:58:16;;;;;;;;;;;;;;;;;;4965056;28;20113;-62
2023/09/29 11:00:47;;;;;;;0.00;0.00;;;;;;;;;;4968834;28;20514;-63
2023/09/29 11:03:13;;;;;;;0.00;0.00;;;;;;;;;;4966531;28;20460;-62
2023/09/29 11:06:11;;;;;;;0.00;0.00;;;;;;;;;;4967340;28;20031;-62
2023/09/29 11:08:42;;;;;;;0.00;0.00;;;;;;;;;;4966138;28;20928;-62
2023/09/29 11:11:09;;;;;;;0.00;0.00;;;;;;;;;;4965558;28;20031;-62
2023/09/29 11:13:34;;;;;;;;;;;;;;;;;;4971216;28;20366;-62
2023/09/29 11:15:59;;;;;;;;;;;;;;;;;;4972230;28;19917;-62
2023/09/29 11:18:32;;;;;;;0.00;0.00;;;;;;;;;;4965737;28;19920;-64
2023/09/29 11:20:58;;;;;;;0.00;0.00;;;;;;;;;;4965071;28;20027;-64
2023/09/29 11:23:24;;;;;;;0.00;0.00;;;;;;;;;;4967429;28;20042;-62
2023/09/29 11:25:50;;;;;;;0.00;0.00;;;;;;;;;;4965601;28;20039;-62
2023/09/29 11:28:16;;;;;;;0.00;0.00;;;;;;;;;;4966919;28;20113;-62
2023/09/29 11:30:42;;;;;;;0.00;0.00;;;;;;;;;;4969918;28;20105;-63
2023/09/29 11:33:09;;;;;;;0.00;0.00;;;;;;;;;;4964898;28;20073;-63
2023/09/29 11:35:35;;;;;;;0.00;0.00;;;;;;;;;;4974103;28;20037;-63
2023/09/29 11:38:00;;;;;;;;;;;;;;;;;;4974367;28;20030;-62
2023/09/29 11:40:26;;;;;;;0.00;0.00;;;;;;;;;;4974716;28;19918;-63
2023/09/29 11:42:52;;;;;;;0.00;0.00;;;;;;;;;;4972620;28;20380;-63
2023/09/29 11:45:17;;;;;;;;;;;;;;;;;;4977432;28;20469;-64
2023/09/29 11:47:42;;;;;;;0.00;0.00;;;;;;;;;;4974531;28;19906;-63
2023/09/29 11:50:09;;;;;;;0.00;0.00;;;;;;;;;;4974297;28;20042;-63
2023/09/29 11:52:35;;;;;;;0.00;0.00;;;;;;;;;;4971255;28;20041;-63
2023/09/29 11:55:00;;;;;;;0.00;0.00;;;;;;;;;;4972086;28;20014;-63
2023/09/29 11:57:25;;;;;;;0.00;0.00;;;;;;;;;;4978744;28;20042;-63
2023/09/29 11:59:51;;;;;;;0.00;0.00;;;;;;;;;;4983703;28;20109;-63
2023/09/29 12:02:16;;;;;;;0.00;0.00;;;;;;;;;;4979821;28;20038;-63
2023/09/29 12:04:42;;;;;;;0.00;0.00;;;;;;;;;;4972182;28;20026;-63
2023/09/29 12:07:07;;;;;;;0.00;0.00;;;;;;;;;;4971071;28;20078;-64
2023/09/29 12:09:32;;;;;;;0.00;0.00;;;;;;;;;;4971332;28;20035;-63
2023/09/29 12:12:01;;;;;;;0.00;0.00;;;;;;;;;;4973462;28;20397;-63
2023/09/29 12:14:26;;;;;;;0.00;0.00;;;;;;;;;;4972754;28;20026;-64
2023/09/29 12:16:53;;;;;;;0.00;0.00;;;;;;;;;;4971955;28;20030;-64
2023/09/29 12:19:20;;;;;;;0.00;0.00;;;;;;;;;;4955708;28;20043;-63
2023/09/29 12:21:45;;;;;;;0.00;0.00;;;;;;;;;;4961422;28;20055;-64
2023/09/29 12:24:11;;;;;;;0.00;0.00;;;;;;;;;;4967099;28;20038;-63
2023/09/29 12:26:36;;;;;;;0.00;0.00;;;;;;;;;;4971422;28;20101;-64
2023/09/29 12:29:05;;;;;;;0.00;0.00;;;;;;;;;;4969635;28;20042;-65
2023/09/29 12:31:30;;;;;;;0.00;0.00;;;;;;;;;;4981964;28;20030;-63
2023/09/29 12:33:56;;;;;;;;;;;;;;;;;;4976331;28;20041;-65
2023/09/29 12:36:22;;;;;;;0.00;0.00;;;;;;;;;;4976747;28;20455;-63
2023/09/29 12:38:48;;;;;;;;;;;;;;;;;;4979851;28;20042;-63
2023/09/29 12:41:15;;;;;;;0.00;0.00;;;;;;;;;;4979964;28;20379;-64
2023/09/29 12:43:41;;;;;;;0.00;0.00;;;;;;;;;;4980862;28;20034;-63
2023/09/29 12:46:06;;;;;;;0.00;0.00;;;;;;;;;;4982435;28;20101;-64
2023/09/29 12:48:31;;;;;;;0.00;0.00;;;;;;;;;;4972855;28;20035;-65
2023/09/29 12:50:57;;;;;;;;;;;;;;;;;;4972264;28;20265;-64
2023/09/29 12:53:22;;;;;;;0.00;0.00;;;;;;;;;;4975692;28;19957;-65
2023/09/29 12:55:48;;;;;;;0.00;0.00;;;;;;;;;;4968540;28;20472;-64
2023/09/29 12:58:13;;;;;;;0.00;0.00;;;;;;;;;;4973084;28;20019;-63
2023/09/29 13:00:38;;;;;;;0.00;0.00;;;;;;;;;;4972679;28;20452;-64
2023/09/29 13:03:06;;;;;;;0.00;0.00;;;;;;;;;;4970106;28;20053;-64
2023/09/29 13:05:32;;;;;;;0.00;0.00;;;;;;;;;;4970765;28;20070;-67
2023/09/29 13:07:58;;;;;;;0.00;0.00;;;;;;;;;;4972005;28;20062;-64
2023/09/29 13:10:24;;;;;;;0.00;0.00;;;;;;;;;;4970215;28;20075;-66
2023/09/29 13:12:54;;;;;;;0.00;0.00;;;;;;;;;;4971304;28;20126;-63
2023/09/29 13:15:21;;;;;;;0.00;0.00;;;;;;;;;;4965461;28;20030;-64
2023/09/29 13:17:46;;;;;;;0.00;0.00;;;;;;;;;;4969580;28;20114;-65
2023/09/29 13:20:12;;;;;;;0.00;0.00;;;;;;;;;;4974003;28;20113;-64
2023/09/29 13:22:38;;;;;;;0.00;0.00;;;;;;;;;;4977343;28;20149;-66
2023/09/29 13:25:04;;;;;;;0.00;0.00;;;;;;;;;;4978300;28;20120;-64
2023/09/29 13:27:32;;;;;;;0.00;0.00;;;;;;;;;;4980152;28;20049;-64
2023/09/29 13:29:57;;;;;;;0.00;0.00;;;;;;;;;;4980726;28;20031;-64
2023/09/29 13:32:23;;;;;;;0.00;0.00;;;;;;;;;;4981852;28;20050;-63
2023/09/29 13:34:48;;;;;;;0.00;0.00;;;;;;;;;;4973465;28;20039;-65
2023/09/29 13:37:18;;;;;;;;;;;;;;;;;;4973525;28;20102;-64
2023/09/29 13:39:44;;;;;;;0.00;0.00;;;;;;;;;;4972867;28;19939;-64
2023/09/29 13:42:09;;;;;;;;;;;;;;;;;;4975389;28;20052;-64
2023/09/29 13:44:34;;;;;;;0.00;0.00;;;;;;;;;;4983239;28;19922;-63
2023/09/29 13:47:00;;;;;;;0.00;0.00;;;;;;;;;;4966669;28;20094;-62
2023/09/29 13:49:25;;;;;;;0.00;0.00;;;;;;;;;;4968979;28;20043;-62
2023/09/29 13:51:51;;;;;;;0.00;0.00;;;;;;;;;;4972458;28;20280;-63
2023/09/29 13:54:16;;;;;;;0.00;0.00;;;;;;;;;;4974834;28;20093;-62
2023/09/29 13:56:41;;;;;;;0.00;0.00;;;;;;;;;;4973794;28;20037;-63
2023/09/29 13:59:07;;;;;;;0.00;0.00;;;;;;;;;;4976431;28;20035;-63
2023/09/29 14:01:32;;;;;;;0.00;0.00;;;;;;;;;;4969465;28;20026;-63
2023/09/29 14:03:59;;;;;;;0.00;0.00;;;;;;;;;;4968924;28;20108;-62
2023/09/29 14:06:25;;;;;;;0.00;0.00;;;;;;;;;;4969374;28;20026;-63
2023/09/29 14:08:50;;;;;;;0.10;0.10;;;;;;;;;;4972996;28;20719;-63
2023/09/29 14:11:15;;;;;;;0.10;0.10;;;;;;;;;;4971239;28;20050;-63
2023/09/29 14:13:41;;;;;;;0.10;0.10;;;;;;;;;;4971709;28;20038;-63
2023/09/29 14:16:06;;;;;;;0.00;0.00;;;;;;;;;;4974917;28;20022;-62
2023/09/29 14:18:31;;;;;;;0.00;0.00;;;;;;;;;;4975745;28;20027;-63
2023/09/29 14:20:57;;;;;;;0.00;0.00;;;;;;;;;;4974596;28;20030;-63
2023/09/29 14:23:22;;;;;;;0.00;0.00;;;;;;;;;;4972186;28;20046;-63
2023/09/29 14:25:47;;;;;;;0.10;0.10;;;;;;;;;;4973029;28;20556;-64
2023/09/29 14:28:13;;;;;;;0.00;0.00;;;;;;;;;;4970405;28;20070;-63
2023/09/29 14:30:38;;;;;;;0.00;0.00;;;;;;;;;;4969066;28;20488;-62
2023/09/29 14:33:04;;;;;;;0.00;0.00;;;;;;;;;;4969037;28;20373;-63
2023/09/29 14:35:33;;;;;;;0.00;0.00;;;;;;;;;;4969704;28;20027;-62
2023/09/29 14:37:59;;;;;;;0.00;0.00;;;;;;;;;;4956047;28;20233;-62
2023/09/29 14:40:25;;;;;;;0.00;0.00;;;;;;;;;;4974693;28;20051;-63